Time;durP1;ratioP1;P1;durP2;ratioP2;P2;SDS_P1;SDS_P2;PMS_P1;PMS_P2;Temp;Humidity;BMP_temperature;BMP_pressure;BME280_temperature;BME280_humidity;BME280_pressure;Samples;Min_cycle;Max_cycle;Signal;HPM_P1;HPM_P2
2023/06/27 07:52:25;;;;;;;;;4.00;3.00;;;;;22.70;49.83;102014.13;5067484;27;46209;-78
2023/06/27 07:54:51;;;;;;;;;4.00;4.00;;;;;22.86;49.01;102021.78;5063123;27;46335;-82
2023/06/27 07:57:16;;;;;;;;;4.33;4.00;;;;;23.03;48.08;102020.31;5053305;28;45567;-80
2023/06/27 07:59:41;;;;;;;;;3.00;2.00;;;;;23.19;47.41;102029.81;5059012;28;57874;-80
2023/06/27 08:02:06;;;;;;;;;2.33;2.33;;;;;23.34;46.72;102035.72;5063355;28;46755;-80
2023/06/27 08:04:32;;;;;;;;;2.00;2.00;;;;;23.48;46.76;102033.66;5064279;28;45578;-80
2023/06/27 08:06:58;;;;;;;;;2.00;2.00;;;;;23.64;46.21;102033.13;5063571;28;45423;-80
2023/06/27 08:09:23;;;;;;;;;4.33;2.00;;;;;23.76;45.61;102026.63;5065982;28;45594;-83
2023/06/27 08:11:50;;;;;;;;;3.67;2.33;;;;;23.89;45.59;102026.34;5067881;28;47692;-83
2023/06/27 08:14:15;;;;;;;;;4.67;3.00;;;;;24.00;44.74;102021.78;5060675;28;45418;-83
2023/06/27 08:16:40;;;;;;;;;5.00;3.00;;;;;24.10;44.97;102014.56;5068306;28;45506;-84
2023/06/27 08:19:06;;;;;;;;;3.00;2.67;;;;;24.20;44.90;102022.72;5059424;28;53646;-82
2023/06/27 08:21:31;;;;;;;;;4.67;3.67;;;;;24.28;44.47;102016.56;5061412;28;46178;-82
2023/06/27 08:23:56;;;;;;;;;2.67;2.33;;;;;24.37;43.88;102017.56;5065077;27;45355;-82
2023/06/27 08:26:22;;;;;;;;;3.00;3.00;;;;;24.43;44.04;102012.41;5064079;28;45364;-81
2023/06/27 08:28:47;;;;;;;;;2.67;2.67;;;;;24.48;42.98;102001.97;5059399;28;45396;-80
2023/06/27 08:31:13;;;;;;;;;3.00;3.00;;;;;24.53;42.49;102011.56;5062268;28;53872;-83
2023/06/27 08:33:39;;;;;;;;;3.00;3.00;;;;;24.54;42.03;102000.56;5053843;27;45554;-83
2023/06/27 08:36:05;;;;;;;;;2.67;2.67;;;;;24.51;42.05;101997.25;5068193;28;45606;-81
2023/06/27 08:38:31;;;;;;;;;3.00;3.00;;;;;24.56;42.72;101995.81;5058433;28;45833;-82
2023/06/27 08:40:56;;;;;;;;;2.33;2.33;;;;;24.63;42.45;102001.53;5062801;28;47182;-80
2023/06/27 08:43:23;;;;;;;;;3.33;2.00;;;;;24.69;42.29;101995.50;5066948;28;45488;-81
2023/06/27 08:45:51;;;;;;;;;4.67;3.33;;;;;24.76;41.59;101984.09;5057609;28;45470;-81
2023/06/27 08:48:17;;;;;;;;;6.00;3.33;;;;;24.79;41.55;101984.63;5064423;28;45938;-81
2023/06/27 08:50:43;;;;;;;;;2.67;2.33;;;;;24.82;41.46;101988.91;5057947;28;46272;-80
2023/06/27 08:53:17;;;;;;;;;4.33;2.67;;;;;24.82;41.37;101991.63;5058855;28;45952;-80
2023/06/27 08:56:10;;;;;;;;;3.67;3.67;;;;;24.84;41.43;101990.50;5060552;28;45597;-81
2023/06/27 08:58:59;;;;;;;;;2.67;2.67;;;;;24.89;41.59;101986.50;5053117;28;45480;-85
2023/06/27 09:01:29;;;;;;;;;5.33;2.33;;;;;24.92;41.60;101981.63;5060136;28;46129;-81
2023/06/27 09:03:55;;;;;;;;;6.67;4.00;;;;;24.97;41.48;101979.31;5051802;28;45785;-83
2023/06/27 09:06:20;;;;;;;;;3.67;3.00;;;;;25.02;41.32;101983.47;5054063;28;45387;-83
2023/06/27 09:08:45;;;;;;;;;3.00;3.00;;;;;25.04;41.58;101970.56;5052483;28;45687;-79
2023/06/27 09:11:11;;;;;;;;;3.33;3.00;;;;;25.07;41.33;101970.28;5051701;28;51529;-80
2023/06/27 09:13:37;;;;;;;;;3.33;3.33;;;;;25.07;40.94;101976.59;5048857;28;45438;-78
2023/06/27 09:16:06;;;;;;;;;2.00;2.00;;;;;25.09;40.59;101971.84;5051875;28;45678;-79
2023/06/27 09:18:35;;;;;;;;;3.67;3.00;;;;;25.14;40.90;101968.69;5047607;28;46759;-78
2023/06/27 09:21:01;;;;;;;;;5.00;2.00;;;;;25.15;39.66;101962.25;5065978;28;46347;-79
2023/06/27 09:23:30;;;;;;;;;2.00;2.00;;;;;25.18;39.68;101969.25;5038793;28;45391;-80
2023/06/27 09:26:12;;;;;;;;;2.00;2.00;;;;;25.20;39.22;101969.94;5050714;28;45745;-81
2023/06/27 09:28:45;;;;;;;;;2.00;2.00;;;;;25.22;39.08;101973.38;5050795;28;45567;-82
2023/06/27 09:31:12;;;;;;;;;5.67;3.00;;;;;25.22;40.32;101963.34;5046264;28;45606;-81
2023/06/27 09:33:37;;;;;;;;;3.33;3.33;;;;;25.26;40.57;101962.03;5052999;28;45463;-81
2023/06/27 09:36:03;;;;;;;;;2.33;2.33;;;;;25.30;40.78;101962.59;5052321;28;45770;-82
2023/06/27 09:38:34;;;;;;;;;3.00;2.33;;;;;25.34;41.23;101961.28;5051624;28;45709;-82
2023/06/27 09:41:06;;;;;;;;;3.00;3.00;;;;;25.37;41.77;101950.13;5053302;28;46263;-81
2023/06/27 09:43:33;;;;;;;;;3.67;3.67;;;;;25.38;41.70;101942.84;5052687;28;45614;-82
2023/06/27 09:45:59;;;;;;;;;2.00;2.00;;;;;25.43;42.58;101939.63;5052261;28;45420;-82
2023/06/27 09:48:27;;;;;;;;;3.00;3.00;;;;;25.47;42.36;101928.28;5040020;28;45566;-81
2023/06/27 09:51:08;;;;;;;;;2.33;2.33;;;;;25.49;42.29;101920.88;5050810;28;45432;-83
2023/06/27 09:53:33;;;;;;;;;3.00;3.00;;;;;25.51;42.46;101924.28;5051074;28;45482;-81
2023/06/27 09:56:00;;;;;;;;;2.00;2.00;;;;;25.55;42.68;101927.59;5040447;28;45450;-82
2023/06/27 09:58:30;;;;;;;;;1.00;1.00;;;;;25.56;42.37;101918.41;5039135;28;45624;-82
2023/06/27 10:01:03;;;;;;;;;1.00;1.00;;;;;25.55;42.82;101916.72;5051983;28;45475;-81
2023/06/27 10:03:29;;;;;;;;;1.00;1.00;;;;;25.58;42.44;101916.38;5047370;28;45422;-82
2023/06/27 10:05:54;;;;;;;;;2.33;1.67;;;;;25.59;42.77;101918.09;5052500;28;45799;-82
2023/06/27 10:08:20;;;;;;;;;2.00;2.00;;;;;25.62;42.75;101911.50;5053208;28;45426;-81
2023/06/27 10:10:45;;;;;;;;;1.00;1.00;;;;;25.62;42.56;101911.50;5052658;28;46323;-82
2023/06/27 10:13:11;;;;;;;;;2.33;2.00;;;;;25.64;42.51;101917.66;5042532;28;46181;-81
2023/06/27 10:15:37;;;;;;;;;2.00;2.00;;;;;25.65;42.98;101905.75;5049511;28;45534;-81
2023/06/27 10:18:02;;;;;;;;;2.00;2.00;;;;;25.67;42.71;101908.31;5048778;28;45662;-82
2023/06/27 10:20:27;;;;;;;;;2.33;2.00;;;;;25.66;42.58;101902.03;5053036;28;45980;-82
2023/06/27 10:22:54;;;;;;;;;2.67;2.33;;;;;25.69;42.56;101909.00;5049535;28;45648;-81
2023/06/27 10:25:20;;;;;;;;;5.67;1.33;;;;;25.70;43.05;101913.47;5043987;28;45563;-82
2023/06/27 10:27:46;;;;;;;;;2.00;2.00;;;;;25.71;42.58;101907.84;5042987;28;45566;-77
2023/06/27 10:30:22;;;;;;;;;3.67;2.00;;;;;25.73;42.85;101914.00;5044511;28;47059;-78
2023/06/27 10:32:47;;;;;;;;;3.00;2.67;;;;;25.74;42.87;101899.38;5043618;28;45411;-78
2023/06/27 10:35:27;;;;;;;;;3.67;3.00;;;;;25.76;42.54;101910.94;5041244;28;45411;-79
2023/06/27 10:38:09;;;;;;;;;4.33;1.67;;;;;25.78;42.65;101911.66;5047763;28;45540;-77
2023/06/27 10:40:56;;;;;;;;;3.00;2.00;;;;;25.81;42.91;101909.63;5039297;28;46216;-79
2023/06/27 10:43:47;;;;;;;;;3.67;2.67;;;;;25.83;42.43;101916.63;5038547;28;46973;-79
2023/06/27 10:46:23;;;;;;;;;2.00;2.00;;;;;25.83;42.22;101900.31;5044020;28;45687;-78
2023/06/27 10:48:53;;;;;;;;;2.67;2.67;;;;;25.85;42.53;101911.03;5048099;28;45610;-78
2023/06/27 10:51:20;;;;;;;;;2.00;2.00;;;;;25.88;42.46;101910.72;5040623;28;46311;-79
2023/06/27 10:54:11;;;;;;;;;5.00;3.33;;;;;25.89;42.69;101912.44;5045437;28;45412;-86
2023/06/27 10:56:40;;;;;;;;;2.33;2.33;;;;;25.91;42.89;101910.41;5043847;28;46111;-85
2023/06/27 10:59:10;;;;;;;;;2.00;2.00;;;;;25.92;43.06;101902.09;5041873;28;45481;-78
2023/06/27 11:01:41;;;;;;;;;5.00;2.33;;;;;25.96;42.91;101902.66;5039232;28;45638;-80
2023/06/27 11:04:42;;;;;;;;;3.33;2.00;;;;;26.00;42.54;101905.91;5045423;28;45454;-78
2023/06/27 11:07:14;;;;;;;;;3.67;3.00;;;;;26.01;42.66;101908.47;5047138;28;45461;-77
2023/06/27 11:09:55;;;;;;;;;3.00;2.00;;;;;26.02;42.73;101895.72;5043745;28;45674;-76
2023/06/27 11:12:21;;;;;;;;;1.67;1.67;;;;;26.03;42.63;101900.13;5040774;28;48176;-78
2023/06/27 11:14:48;;;;;;;;;2.00;2.00;;;;;26.05;43.57;101895.41;5039417;28;45497;-78
2023/06/27 11:17:17;;;;;;;;;1.33;1.33;;;;;26.08;42.70;101902.38;5037609;28;45486;-78
2023/06/27 11:19:42;;;;;;;;;3.00;3.00;;;;;26.08;43.27;101905.97;5036083;28;45649;-77
2023/06/27 11:22:08;;;;;;;;;1.00;1.00;;;;;26.11;42.71;101902.91;5042585;28;46103;-78
2023/06/27 11:24:33;;;;;;;;;5.00;3.00;;;;;26.09;42.95;101888.63;5043143;28;45482;-85
2023/06/27 11:27:02;;;;;;;;;2.67;2.67;;;;;26.12;42.84;101882.03;5040220;28;46592;-86
2023/06/27 11:29:27;;;;;;;;;3.00;3.00;;;;;26.14;42.86;101879.97;5044189;28;45361;-87
2023/06/27 11:31:54;;;;;;;;;3.00;2.00;;;;;26.17;42.09;101879.69;5042037;28;46258;-87
2023/06/27 11:34:20;;;;;;;;;2.00;2.00;;;;;26.17;42.39;101880.50;5040594;28;45558;-86
2023/06/27 11:36:45;;;;;;;;;2.00;2.00;;;;;26.17;42.65;101877.78;5047025;28;45652;-79
2023/06/27 11:39:11;;;;;;;;;6.00;3.00;;;;;26.16;42.79;101880.69;5039054;28;45531;-77
2023/06/27 11:41:41;;;;;;;;;3.00;2.00;;;;;26.17;42.31;101879.69;5045512;28;46198;-76
2023/06/27 11:44:10;;;;;;;;;2.67;2.67;;;;;26.14;42.51;101878.13;5040135;28;46727;-77
2023/06/27 11:46:48;;;;;;;;;1.33;1.33;;;;;26.14;42.83;101880.84;5045022;28;45484;-79
2023/06/27 11:49:15;;;;;;;;;2.67;2.33;;;;;26.12;42.60;101877.41;5043523;28;45512;-80
2023/06/27 11:51:40;;;;;;;;;1.67;1.67;;;;;26.12;42.38;101877.41;5048292;28;45498;-80
2023/06/27 11:54:07;;;;;;;;;3.67;3.67;;;;;26.13;42.75;101873.72;5047374;28;45305;-77
2023/06/27 11:56:33;;;;;;;;;4.00;4.00;;;;;26.11;42.49;101874.88;5051047;28;45834;-77
2023/06/27 11:58:59;;;;;;;;;2.67;1.00;;;;;26.14;42.88;101874.53;5044429;28;45594;-77
2023/06/27 12:01:26;;;;;;;;;5.33;3.33;;;;;26.15;42.52;101868.94;5044198;28;46577;-77
2023/06/27 12:03:52;;;;;;;;;2.33;2.33;;;;;26.18;42.84;101868.63;5047622;28;45586;-77
2023/06/27 12:06:31;;;;;;;;;3.00;3.00;;;;;26.19;42.72;101866.75;5048078;28;45590;-82
2023/06/27 12:08:58;;;;;;;;;3.00;3.00;;;;;26.21;42.91;101861.16;5046596;28;45622;-83
2023/06/27 12:11:34;;;;;;;;;2.00;2.00;;;;;26.22;42.56;101866.44;5046103;28;46040;-79
2023/06/27 12:14:00;;;;;;;;;2.00;2.00;;;;;26.25;42.82;101862.59;5043986;28;45577;-77
2023/06/27 12:16:29;;;;;;;;;3.67;3.00;;;;;26.28;43.07;101859.56;5050641;28;45550;-76
2023/06/27 12:19:12;;;;;;;;;4.00;3.67;;;;;26.30;43.07;101860.22;5043135;28;45685;-77
2023/06/27 12:21:38;;;;;;;;;4.00;3.00;;;;;26.31;42.87;101856.50;5048867;28;46267;-76
2023/06/27 12:24:04;;;;;;;;;3.00;3.00;;;;;26.34;43.03;101855.31;5038605;28;47082;-76
2023/06/27 12:26:29;;;;;;;;;2.00;2.00;;;;;26.36;42.18;101858.75;5048693;28;45862;-76
2023/06/27 12:29:00;;;;;;;;;3.00;3.00;;;;;26.38;42.69;101848.53;5048161;28;45538;-84
2023/06/27 12:31:25;;;;;;;;;2.00;2.00;;;;;26.39;42.12;101853.81;5049704;28;45573;-79
2023/06/27 12:33:51;;;;;;;;;3.00;3.00;;;;;26.41;42.58;101853.66;5050520;28;57532;-77
2023/06/27 12:36:24;;;;;;;;;3.00;3.00;;;;;26.42;42.87;101852.66;5045358;28;45447;-80
2023/06/27 12:38:50;;;;;;;;;3.33;3.33;;;;;26.43;42.38;101840.75;5051826;28;45610;-78
2023/06/27 12:41:19;;;;;;;;;4.00;3.67;;;;;26.43;42.86;101835.28;5052517;28;45471;-78
2023/06/27 12:43:45;;;;;;;;;4.00;4.00;;;;;26.43;42.79;101829.84;5052190;28;45715;-79
2023/06/27 12:46:11;;;;;;;;;4.00;2.00;;;;;26.44;42.79;101835.13;5053144;28;45469;-80
2023/06/27 12:48:36;;;;;;;;;2.67;2.67;;;;;26.41;42.87;101826.44;5048083;28;45554;-78
2023/06/27 12:51:04;;;;;;;;;1.00;1.00;;;;;26.37;42.79;101831.38;5049321;28;45549;-78
2023/06/27 12:53:30;;;;;;;;;2.00;2.00;;;;;26.33;42.38;101819.09;5048034;28;45784;-78
2023/06/27 12:55:56;;;;;;;;;2.67;2.67;;;;;26.31;43.06;101824.69;5047085;28;45545;-81
2023/06/27 12:58:21;;;;;;;;;3.00;3.00;;;;;26.28;42.88;101818.72;5050840;28;45440;-82
2023/06/27 13:00:46;;;;;;;;;2.00;2.00;;;;;26.25;42.51;101819.91;5054314;28;48348;-78
2023/06/27 13:03:13;;;;;;;;;2.00;2.00;;;;;26.23;43.09;101821.06;5052239;28;45392;-78
2023/06/27 13:05:38;;;;;;;;;3.00;3.00;;;;;26.17;42.91;101808.94;5045649;28;45615;-79
2023/06/27 13:08:03;;;;;;;;;3.33;2.00;;;;;26.17;43.05;101820.66;5046476;28;45601;-78
2023/06/27 13:10:29;;;;;;;;;3.00;3.00;;;;;26.14;43.09;101806.53;5052566;28;45960;-78
2023/06/27 13:12:54;;;;;;;;;2.67;2.67;;;;;26.12;43.12;101805.84;5050708;28;45410;-79
2023/06/27 13:15:20;;;;;;;;;4.67;2.00;;;;;26.12;43.24;101816.72;5054416;28;45470;-76
2023/06/27 13:17:46;;;;;;;;;2.00;2.00;;;;;26.12;42.90;101808.56;5051663;28;45558;-76
2023/06/27 13:20:12;;;;;;;;;2.67;1.00;;;;;26.08;43.27;101797.16;5050892;28;46263;-77
2023/06/27 13:22:39;;;;;;;;;4.00;2.00;;;;;26.12;43.25;101798.53;5053062;28;45455;-77
2023/06/27 13:25:05;;;;;;;;;2.33;2.33;;;;;26.12;42.88;101798.53;5051057;28;45422;-77
2023/06/27 13:27:31;;;;;;;;;2.00;2.00;;;;;26.12;43.26;101803.13;5038437;28;45458;-78
2023/06/27 13:29:57;;;;;;;;;0.00;0.00;;;;;26.08;42.97;101786.28;5053220;28;45389;-78
2023/06/27 13:32:23;;;;;;;;;2.00;2.00;;;;;26.07;43.41;101786.44;5048719;28;46670;-77
2023/06/27 13:34:48;;;;;;;;;4.00;2.00;;;;;26.06;43.28;101785.56;5050984;28;45572;-81
2023/06/27 13:37:14;;;;;;;;;3.33;3.33;;;;;26.10;43.25;101803.28;5066617;28;45638;-80
2023/06/27 13:39:39;;;;;;;;;4.00;2.00;;;;;26.11;43.41;101791.38;5051050;28;46012;-78
2023/06/27 13:42:04;;;;;;;;;1.00;1.00;;;;;26.11;43.42;101796.00;5051586;28;45443;-79
2023/06/27 13:44:30;;;;;;;;;3.00;3.00;;;;;26.10;43.10;101795.13;5049345;28;45620;-76
2023/06/27 13:46:55;;;;;;;;;2.33;2.33;;;;;26.08;43.24;101789.00;5052963;28;45513;-77
2023/06/27 13:49:21;;;;;;;;;3.00;3.00;;;;;26.11;43.03;101787.81;5047195;28;46532;-78
2023/06/27 13:51:47;;;;;;;;;4.00;3.00;;;;;26.08;43.38;101772.69;5052770;28;45432;-78
2023/06/27 13:54:12;;;;;;;;;2.33;2.33;;;;;26.10;43.41;101775.22;5046317;28;45510;-78
2023/06/27 13:56:37;;;;;;;;;4.00;2.67;;;;;26.11;43.23;101776.94;5053298;28;45508;-80
2023/06/27 13:59:03;;;;;;;;;5.00;3.33;;;;;26.10;43.38;101777.94;5049504;28;47118;-78
2023/06/27 14:01:28;;;;;;;;;2.33;2.33;;;;;26.11;43.01;101772.34;5043897;28;45546;-78
2023/06/27 14:03:55;;;;;;;;;1.67;1.33;;;;;26.10;43.09;101770.63;5043802;28;45494;-79
2023/06/27 14:06:21;;;;;;;;;2.67;1.67;;;;;26.09;43.39;101765.34;5050957;28;45618;-79
2023/06/27 14:08:46;;;;;;;;;1.33;1.33;;;;;26.09;43.45;101765.34;5042108;28;46649;-82
2023/06/27 14:11:14;;;;;;;;;2.00;2.00;;;;;26.10;42.95;101761.59;5048613;28;45627;-82
2023/06/27 14:13:43;;;;;;;;;3.67;2.67;;;;;26.07;43.68;101746.47;5043126;28;46413;-79
2023/06/27 14:16:10;;;;;;;;;3.33;2.33;;;;;26.10;43.08;101750.72;5038350;28;45394;-79
2023/06/27 14:18:35;;;;;;;;;2.00;2.00;;;;;26.10;43.56;101751.59;5046246;28;45895;-76
2023/06/27 14:21:07;;;;;;;;;2.33;2.33;;;;;26.10;43.39;101748.88;5037140;28;51237;-77
2023/06/27 14:23:33;;;;;;;;;2.67;1.67;;;;;26.10;43.51;101746.16;5046035;28;45737;-77
2023/06/27 14:25:59;;;;;;;;;2.00;2.00;;;;;26.09;43.24;101739.00;5048933;28;45551;-76
2023/06/27 14:28:24;;;;;;;;;3.33;1.33;;;;;26.08;43.28;101748.19;5051350;28;67434;-76
2023/06/27 14:30:49;;;;;;;;;3.00;3.00;;;;;26.08;43.53;101740.03;5050539;28;45474;-80
2023/06/27 14:33:20;;;;;;;;;5.00;5.00;;;;;26.10;43.48;101743.44;5050272;28;47174;-83
2023/06/27 14:35:46;;;;;;;;;3.00;3.00;;;;;26.09;43.20;101736.28;5050311;28;45471;-80
2023/06/27 14:38:11;;;;;;;;;3.00;2.67;;;;;26.11;43.29;101742.41;5044218;28;46065;-78
2023/06/27 14:40:36;;;;;;;;;3.00;3.00;;;;;26.12;43.10;101735.94;5048105;28;56392;-79
2023/06/27 14:43:03;;;;;;;;;2.33;2.33;;;;;26.12;43.65;101733.22;5048850;28;52942;-78
2023/06/27 14:45:28;;;;;;;;;2.00;2.00;;;;;26.14;43.51;101736.66;5050010;28;45402;-80
2023/06/27 14:47:54;;;;;;;;;6.00;3.00;;;;;26.14;43.03;101722.19;5048552;28;47224;-80
2023/06/27 14:50:19;;;;;;;;;2.33;2.33;;;;;26.16;43.57;101740.06;5047613;28;45474;-78
2023/06/27 14:52:45;;;;;;;;;3.33;3.33;;;;;26.14;43.23;101723.06;5043753;28;45444;-81
2023/06/27 14:55:10;;;;;;;;;2.00;2.00;;;;;26.18;43.04;101729.88;5038193;28;45514;-79
2023/06/27 14:57:36;;;;;;;;;2.00;2.00;;;;;26.24;42.82;101722.06;5039078;28;45841;-79
2023/06/27 15:00:01;;;;;;;;;5.00;4.00;;;;;26.25;43.28;101721.94;5050553;28;50422;-79
2023/06/27 15:02:26;;;;;;;;;4.67;3.00;;;;;26.29;43.05;101714.31;5047351;28;45995;-79
2023/06/27 15:04:52;;;;;;;;;1.67;1.67;;;;;26.31;42.73;101714.97;5052137;28;52177;-80
2023/06/27 15:07:17;;;;;;;;;4.00;3.33;;;;;26.34;43.16;101702.91;5040328;28;49411;-78
2023/06/27 15:09:42;;;;;;;;;3.00;3.00;;;;;26.36;43.29;101718.06;5046576;28;48952;-80
2023/06/27 15:12:08;;;;;;;;;2.00;2.00;;;;;26.37;42.91;101705.31;5051269;28;45586;-80
2023/06/27 15:14:33;;;;;;;;;2.67;2.67;;;;;26.40;43.03;101710.44;5049016;28;45869;-80
2023/06/27 15:16:59;;;;;;;;;4.00;3.00;;;;;26.43;43.15;101704.66;5043544;28;57529;-79
2023/06/27 15:19:24;;;;;;;;;2.00;2.00;;;;;26.44;42.84;101695.47;5048573;28;45598;-80
2023/06/27 15:21:49;;;;;;;;;3.00;3.00;;;;;26.46;42.75;101698.88;5048754;28;45783;-79
2023/06/27 15:24:15;;;;;;;;;4.00;4.00;;;;;26.48;43.12;101698.72;5046679;28;45642;-80
2023/06/27 15:26:40;;;;;;;;;3.00;3.00;;;;;26.49;42.63;101684.09;5049362;28;47553;-78
2023/06/27 15:29:05;;;;;;;;;4.00;3.00;;;;;26.49;42.60;101682.22;5047159;28;45439;-80
2023/06/27 15:31:31;;;;;;;;;3.00;2.00;;;;;26.51;42.64;101682.91;5044344;28;45467;-79
2023/06/27 15:33:56;;;;;;;;;2.33;1.67;;;;;26.52;42.92;101686.50;5045226;28;45355;-80
2023/06/27 15:36:21;;;;;;;;;5.33;2.67;;;;;26.51;42.47;101685.63;5049231;28;47063;-80
2023/06/27 15:38:47;;;;;;;;;1.67;1.67;;;;;26.51;42.52;101685.63;5051015;28;45590;-79
2023/06/27 15:41:12;;;;;;;;;3.00;3.00;;;;;26.51;42.39;101682.03;5050886;28;45345;-79
2023/06/27 15:43:38;;;;;;;;;3.67;3.00;;;;;26.51;43.16;101682.91;5050906;28;45482;-79
2023/06/27 15:46:03;;;;;;;;;3.00;3.00;;;;;26.51;43.11;101662.97;5050676;28;45658;-79
2023/06/27 15:48:29;;;;;;;;;3.00;3.00;;;;;26.52;42.96;101662.81;5046474;28;45868;-80
2023/06/27 15:50:57;;;;;;;;;3.33;3.33;;;;;26.52;43.18;101657.38;5049640;28;45569;-79
2023/06/27 15:53:22;;;;;;;;;4.33;4.33;;;;;26.52;43.24;101659.25;5051865;28;45809;-79
2023/06/27 15:55:47;;;;;;;;;2.33;2.33;;;;;26.52;42.60;101660.09;5050574;28;55647;-79
2023/06/27 15:58:12;;;;;;;;;1.33;1.33;;;;;26.53;42.86;101655.53;5049661;28;45733;-80
2023/06/27 16:00:38;;;;;;;;;3.67;3.00;;;;;26.54;42.72;101657.22;5049821;28;45456;-80
2023/06/27 16:03:03;;;;;;;;;3.00;3.00;;;;;26.53;42.59;101650.06;5049254;28;45482;-79
2023/06/27 16:05:29;;;;;;;;;2.00;2.00;;;;;26.54;42.78;101654.50;5051331;28;46280;-79
2023/06/27 16:07:54;;;;;;;;;2.33;2.33;;;;;26.53;42.64;101647.34;5049958;28;45538;-79
2023/06/27 16:10:20;;;;;;;;;4.00;2.33;;;;;26.53;43.08;101652.81;5040499;28;45459;-78
2023/06/27 16:12:45;;;;;;;;;2.00;2.00;;;;;26.53;42.87;101650.06;5046486;28;45533;-76
2023/06/27 16:15:10;;;;;;;;;4.00;2.33;;;;;26.55;43.40;101648.03;5042545;28;58326;-78
2023/06/27 16:17:36;;;;;;;;;3.00;3.00;;;;;26.56;43.25;101639.69;5039959;28;45474;-77
2023/06/27 16:20:01;;;;;;;;;3.00;3.00;;;;;26.60;43.05;101639.38;5048994;28;45861;-78
2023/06/27 16:22:26;;;;;;;;;2.00;2.00;;;;;26.63;43.72;101639.00;5047487;28;45550;-79
2023/06/27 16:24:52;;;;;;;;;2.00;2.00;;;;;26.65;43.98;101632.38;5054783;28;46022;-80
2023/06/27 16:27:17;;;;;;;;;2.00;2.00;;;;;26.67;43.90;101630.34;5054568;28;62507;-77
2023/06/27 16:29:42;;;;;;;;;2.00;2.00;;;;;26.70;43.33;101631.91;5052478;28;45439;-79
2023/06/27 16:32:08;;;;;;;;;2.00;2.00;;;;;26.72;43.42;101627.13;5053677;28;45595;-80
2023/06/27 16:34:38;;;;;;;;;5.67;3.00;;;;;26.75;44.15;101625.94;5051851;28;45383;-77
2023/06/27 16:37:05;;;;;;;;;3.00;2.00;;;;;26.77;44.21;101627.47;5054777;28;45423;-80
2023/06/27 16:39:31;;;;;;;;;2.00;2.00;;;;;26.79;43.65;101621.84;5050337;28;45566;-80
2023/06/27 16:41:56;;;;;;;;;3.67;3.00;;;;;26.80;44.07;101618.97;5051716;28;45557;-79
2023/06/27 16:44:22;;;;;;;;;5.00;3.33;;;;;26.79;43.68;101622.72;5054215;28;45757;-79
2023/06/27 16:46:48;;;;;;;;;1.67;1.67;;;;;26.78;44.24;101622.88;5053414;28;46077;-80
2023/06/27 16:49:13;;;;;;;;;4.33;2.00;;;;;26.78;43.97;101628.31;5053841;28;45454;-82
2023/06/27 16:51:39;;;;;;;;;2.00;2.00;;;;;26.75;44.13;101623.19;5054008;28;46158;-80
2023/06/27 16:54:04;;;;;;;;;3.33;3.33;;;;;26.73;44.10;101620.63;5049535;28;47079;-79
2023/06/27 16:56:30;;;;;;;;;5.00;3.00;;;;;26.73;44.70;101623.38;5047862;28;45698;-78
2023/06/27 16:58:55;;;;;;;;;3.00;3.00;;;;;26.72;44.31;101618.94;5040198;28;45920;-78
2023/06/27 17:01:20;;;;;;;;;3.00;3.00;;;;;26.70;44.85;101618.28;5054323;28;45566;-76
2023/06/27 17:03:46;;;;;;;;;2.00;2.00;;;;;26.66;44.45;101612.31;5052491;28;46245;-76
2023/06/27 17:06:11;;;;;;;;;3.67;2.67;;;;;26.65;45.00;101612.50;5053432;28;45825;-78
2023/06/27 17:08:36;;;;;;;;;2.00;2.00;;;;;26.63;44.75;101604.50;5050802;28;45558;-78
2023/06/27 17:11:02;;;;;;;;;2.00;2.00;;;;;26.63;44.38;101614.50;5042214;28;46636;-79
2023/06/27 17:13:27;;;;;;;;;4.33;4.33;;;;;26.60;45.04;101603.97;5051852;28;46133;-79
2023/06/27 17:15:53;;;;;;;;;2.00;2.00;;;;;26.63;44.44;101600.91;5055009;28;45796;-79
2023/06/27 17:18:19;;;;;;;;;2.67;2.67;;;;;26.64;45.16;101608.91;5049121;28;45496;-79
2023/06/27 17:20:44;;;;;;;;;2.67;2.67;;;;;26.64;44.60;101606.19;5047532;28;45554;-78
2023/06/27 17:23:10;;;;;;;;;2.00;2.00;;;;;26.65;44.78;101605.16;5040415;28;45753;-77
2023/06/27 17:25:36;;;;;;;;;4.33;3.00;;;;;26.68;44.51;101604.81;5040666;28;45490;-77
2023/06/27 17:28:01;;;;;;;;;4.00;3.67;;;;;26.68;45.25;101606.69;5039260;28;46852;-77
2023/06/27 17:30:26;;;;;;;;;1.00;1.00;;;;;26.65;44.96;101601.59;5041766;28;46445;-80
2023/06/27 17:32:52;;;;;;;;;3.00;3.00;;;;;26.66;45.54;101606.03;5039287;28;45819;-81
2023/06/27 17:35:17;;;;;;;;;4.00;2.00;;;;;26.66;45.33;101603.28;5041758;28;45364;-79
2023/06/27 17:37:44;;;;;;;;;4.00;2.00;;;;;26.67;45.50;101608.56;5042436;28;45665;-81
